createdAt,value
2022-08-05T00:02:08.024Z,10.40
2022-08-05T00:04:37.979Z,12.20
2022-08-05T00:07:27.525Z,10.80
2022-08-05T00:09:53.411Z,7.00
2022-08-05T00:12:21.272Z,6.27
2022-08-05T00:14:48.553Z,11.87
2022-08-05T00:17:19.570Z,9.63
2022-08-05T00:20:02.544Z,11.90
2022-08-05T00:22:29.889Z,10.17
2022-08-05T00:24:57.896Z,11.47
2022-08-05T00:27:28.427Z,8.80
2022-08-05T00:30:04.244Z,8.23
2022-08-05T00:32:30.903Z,10.83
2022-08-05T00:35:06.812Z,10.50
2022-08-05T00:37:35.396Z,8.33
2022-08-05T00:40:26.827Z,14.07
2022-08-05T00:42:59.577Z,13.17
2022-08-05T00:45:38.783Z,9.93
2022-08-05T00:48:15.758Z,11.27
2022-08-05T00:50:46.044Z,9.57
2022-08-05T00:54:01.264Z,13.67
2022-08-05T00:56:05.573Z,9.83
2022-08-05T00:58:34.980Z,10.07
2022-08-05T01:01:03.819Z,11.27
2022-08-05T01:03:35.447Z,11.77
2022-08-05T01:06:02.622Z,10.53
2022-08-05T01:08:43.660Z,16.10
2022-08-05T01:11:33.412Z,7.93
2022-08-05T01:14:11.840Z,14.07
2022-08-05T01:16:52.298Z,11.60
2022-08-05T01:19:21.618Z,10.63
2022-08-05T01:22:18.699Z,8.33
2022-08-05T01:24:50.398Z,9.93
2022-08-05T01:27:55.895Z,10.60
2022-08-05T01:30:34.028Z,7.40
2022-08-05T01:33:03.966Z,10.93
2022-08-05T01:35:51.873Z,8.87
2022-08-05T01:38:27.016Z,10.53
2022-08-05T01:40:55.584Z,12.27
2022-08-05T01:43:24.185Z,13.63
2022-08-05T01:45:56.429Z,5.53
2022-08-05T01:48:25.485Z,10.60
2022-08-05T01:50:55.293Z,15.80
2022-08-05T01:53:54.697Z,9.47
2022-08-05T01:56:10.290Z,10.87
2022-08-05T01:58:45.232Z,9.93
2022-08-05T02:01:13.644Z,8.17
2022-08-05T02:03:45.086Z,11.60
2022-08-05T02:06:33.328Z,7.97
2022-08-05T02:08:59.372Z,7.43
2022-08-05T02:11:33.515Z,10.40
2022-08-05T02:14:12.672Z,8.53
2022-08-05T02:16:52.150Z,12.57
2022-08-05T02:19:34.372Z,6.83
2022-08-05T02:22:25.685Z,8.27
2022-08-05T02:24:56.436Z,8.00
2022-08-05T02:27:30.211Z,9.30
2022-08-05T02:30:13.663Z,11.17
2022-08-05T02:32:41.216Z,8.80
2022-08-05T02:35:14.043Z,6.87
2022-08-05T02:37:42.148Z,8.67
2022-08-05T02:40:21.178Z,16.10
2022-08-05T02:42:52.828Z,6.97
2022-08-05T02:45:25.205Z,9.37
2022-08-05T02:48:11.710Z,8.63
2022-08-05T02:50:43.925Z,8.47
2022-08-05T02:53:16.002Z,8.47
2022-08-05T02:55:54.885Z,7.17
2022-08-05T02:58:27.349Z,11.57
2022-08-05T03:00:56.799Z,7.77
2022-08-05T03:03:24.008Z,6.83
2022-08-05T03:06:57.088Z,8.47
2022-08-05T03:08:38.971Z,11.70
2022-08-05T03:11:55.218Z,10.33
2022-08-05T03:14:08.013Z,12.40
2022-08-05T03:16:35.744Z,10.80
2022-08-05T03:19:08.775Z,9.73
2022-08-05T03:21:48.543Z,13.87
2022-08-05T03:24:18.405Z,10.00
2022-08-05T03:26:56.396Z,6.93
2022-08-05T03:29:24.031Z,8.67
2022-08-05T03:31:57.315Z,9.80
2022-08-05T03:34:28.135Z,10.13
2022-08-05T03:36:55.527Z,10.30
2022-08-05T03:39:26.755Z,13.90
2022-08-05T03:41:56.243Z,12.63
2022-08-05T03:44:23.388Z,13.03
2022-08-05T03:46:50.329Z,13.70
2022-08-05T03:49:17.185Z,13.50
2022-08-05T03:52:38.144Z,10.37
2022-08-05T03:55:54.209Z,10.97
2022-08-05T03:57:42.285Z,13.47
2022-08-05T04:00:11.876Z,12.17
2022-08-05T04:02:52.203Z,11.20
2022-08-05T04:05:33.208Z,13.20
2022-08-05T04:08:02.681Z,14.10
2022-08-05T04:10:37.224Z,12.30
2022-08-05T04:13:05.806Z,13.73
2022-08-05T04:15:36.119Z,15.27
2022-08-05T04:18:07.022Z,12.40
2022-08-05T04:20:35.343Z,12.83
2022-08-05T04:23:02.161Z,14.40
2022-08-05T04:25:56.984Z,11.40
2022-08-05T04:28:17.417Z,13.03
2022-08-05T04:30:44.444Z,11.00
2022-08-05T04:33:12.220Z,14.13
2022-08-05T04:36:11.186Z,12.70
2022-08-05T04:38:39.506Z,14.83
2022-08-05T04:41:07.384Z,11.07
2022-08-05T04:43:36.016Z,11.13
2022-08-05T04:46:04.986Z,12.57
2022-08-05T04:48:31.809Z,11.77
2022-08-05T04:51:01.706Z,19.47
2022-08-05T04:53:33.373Z,12.57
2022-08-05T04:56:14.724Z,15.13
2022-08-05T04:58:48.592Z,16.10
2022-08-05T05:01:15.239Z,12.47
2022-08-05T05:04:00.750Z,17.60
2022-08-05T05:06:37.051Z,13.53
2022-08-05T05:09:14.290Z,12.30
2022-08-05T05:11:55.458Z,17.00
2022-08-05T05:14:27.953Z,12.13
2022-08-05T05:16:58.698Z,16.93
2022-08-05T05:19:26.647Z,9.87
2022-08-05T05:21:55.683Z,14.57
2022-08-05T05:24:22.426Z,12.43
2022-08-05T05:27:08.886Z,16.93
2022-08-05T05:30:03.193Z,14.97
2022-08-05T05:32:23.203Z,11.23
2022-08-05T05:34:52.382Z,17.53
2022-08-05T05:37:19.212Z,12.47
2022-08-05T05:39:45.762Z,12.43
2022-08-05T05:42:12.479Z,16.70
2022-08-05T05:44:43.092Z,12.17
2022-08-05T05:47:21.750Z,11.50
2022-08-05T05:49:52.529Z,13.90
2022-08-05T05:52:28.573Z,12.60
2022-08-05T05:55:02.017Z,15.57
2022-08-05T05:57:42.927Z,10.27
2022-08-05T06:00:21.661Z,10.23
2022-08-05T06:02:58.166Z,10.90
2022-08-05T06:05:25.699Z,12.40
2022-08-05T06:08:01.218Z,13.33
2022-08-05T06:10:29.273Z,13.57
2022-08-05T06:12:56.023Z,14.77
2022-08-05T06:15:24.525Z,13.70
2022-08-05T06:18:10.929Z,12.88
2022-08-05T06:20:38.290Z,11.60
2022-08-05T06:23:05.005Z,9.95
2022-08-05T06:26:12.259Z,10.32
2022-08-05T06:28:21.645Z,8.68
2022-08-05T06:30:48.689Z,12.68
2022-08-05T06:33:19.080Z,10.25
2022-08-05T06:36:04.151Z,11.30
2022-08-05T06:38:35.920Z,12.00
2022-08-05T06:41:04.266Z,17.52
2022-08-05T06:43:58.457Z,6.97
2022-08-05T06:46:18.078Z,8.00
2022-08-05T06:48:55.652Z,12.13
2022-08-05T06:51:30.058Z,8.18
2022-08-05T06:54:02.138Z,11.18
2022-08-05T06:56:29.986Z,12.18
2022-08-05T06:59:00.059Z,10.15
2022-08-05T07:01:31.954Z,6.80
2022-08-05T07:04:01.420Z,9.18
2022-08-05T07:06:29.098Z,6.00
2022-08-05T07:08:55.757Z,6.60
2022-08-05T07:11:25.256Z,6.28
2022-08-05T07:14:20.689Z,10.70
2022-08-05T07:18:01.615Z,11.38
2022-08-05T07:20:31.396Z,9.32
2022-08-05T07:22:38.405Z,9.88
2022-08-05T07:25:22.130Z,11.93
2022-08-05T07:27:58.694Z,7.85
2022-08-05T07:30:32.829Z,6.05
2022-08-05T07:33:05.213Z,10.93
2022-08-05T07:36:02.608Z,6.03
2022-08-05T07:38:32.053Z,8.55
2022-08-05T07:41:16.797Z,17.33
2022-08-05T07:43:48.529Z,5.05
2022-08-05T07:46:24.485Z,11.75
2022-08-05T07:49:02.172Z,9.55
2022-08-05T07:51:36.770Z,8.55
2022-08-05T07:54:05.654Z,7.38
2022-08-05T07:57:01.857Z,8.73
2022-08-05T07:59:38.342Z,9.93
2022-08-05T08:02:16.082Z,9.15
2022-08-05T08:04:48.208Z,6.10
2022-08-05T08:07:15.838Z,5.82
2022-08-05T08:09:43.274Z,6.70
2022-08-05T08:12:29.706Z,15.70
2022-08-05T08:14:56.865Z,10.35
2022-08-05T08:17:28.777Z,12.50
2022-08-05T08:20:21.653Z,6.95
2022-08-05T08:22:43.735Z,10.43
2022-08-05T08:25:16.351Z,6.63
2022-08-05T08:27:47.685Z,18.75
2022-08-05T08:30:29.727Z,6.22
2022-08-05T08:33:04.617Z,6.38
2022-08-05T08:35:41.419Z,5.57
2022-08-05T08:38:32.291Z,9.35
2022-08-05T08:41:07.268Z,7.50
2022-08-05T08:45:24.059Z,8.10
2022-08-05T08:46:24.119Z,8.90
2022-08-05T08:49:07.810Z,9.20
2022-08-05T08:52:03.854Z,13.27
2022-08-05T08:54:27.361Z,9.60
2022-08-05T08:56:54.369Z,5.25
2022-08-05T08:59:23.518Z,7.10
2022-08-05T09:01:57.238Z,5.77
2022-08-05T09:04:30.554Z,9.48
2022-08-05T09:06:57.742Z,6.53
2022-08-05T09:09:25.241Z,6.03
2022-08-05T09:11:55.339Z,8.05
2022-08-05T09:14:57.619Z,6.50
2022-08-05T09:17:42.699Z,6.18
2022-08-05T09:20:05.225Z,6.18
2022-08-05T09:23:09.574Z,7.38
2022-08-05T09:26:03.069Z,8.27
2022-08-05T09:28:31.662Z,9.00
2022-08-05T09:31:43.687Z,4.20
2022-08-05T09:33:59.349Z,5.40
2022-08-05T09:36:53.949Z,7.15
2022-08-05T09:39:24.700Z,9.95
2022-08-05T09:42:07.869Z,7.43
2022-08-05T09:44:38.947Z,4.47
2022-08-05T09:47:15.769Z,10.95
2022-08-05T09:50:00.780Z,7.95
2022-08-05T09:52:35.020Z,10.80
2022-08-05T09:55:56.749Z,7.18
2022-08-05T09:57:58.559Z,4.53
2022-08-05T10:00:26.028Z,7.32
2022-08-05T10:02:58.131Z,7.57
2022-08-05T10:05:28.222Z,6.85
2022-08-05T10:08:35.823Z,5.85
2022-08-05T10:10:50.195Z,8.15
2022-08-05T10:13:47.412Z,5.93
2022-08-05T10:16:37.897Z,4.28
2022-08-05T10:19:19.103Z,4.90
2022-08-05T10:21:50.784Z,8.27
2022-08-05T10:24:21.074Z,6.53
2022-08-05T10:26:56.380Z,13.43
2022-08-05T10:30:06.706Z,8.70
2022-08-05T10:32:51.848Z,5.55
2022-08-05T10:35:04.110Z,5.22
2022-08-05T10:37:37.148Z,5.47
2022-08-05T10:40:17.819Z,6.25
2022-08-05T10:42:48.438Z,8.88
2022-08-05T10:45:23.986Z,5.75
2022-08-05T10:48:52.691Z,4.97
2022-08-05T10:51:29.156Z,8.07
2022-08-05T10:54:01.639Z,10.55
2022-08-05T10:56:44.848Z,9.67
2022-08-05T10:59:12.643Z,6.65
2022-08-05T11:02:14.495Z,7.50
2022-08-05T11:04:56.765Z,5.82
2022-08-05T11:07:32.993Z,6.68
2022-08-05T11:10:27.487Z,5.22
2022-08-05T11:12:55.261Z,10.98
2022-08-05T11:15:59.173Z,7.53
2022-08-05T11:18:29.788Z,5.93
2022-08-05T11:20:59.678Z,6.32
2022-08-05T11:24:04.590Z,4.32
2022-08-05T11:26:40.553Z,8.45
2022-08-05T11:29:37.595Z,6.38
2022-08-05T11:32:28.488Z,5.37
2022-08-05T11:34:56.313Z,9.77
2022-08-05T11:38:29.279Z,5.85
2022-08-05T11:41:34.350Z,4.43
2022-08-05T11:44:05.044Z,8.63
2022-08-05T11:46:58.205Z,3.88
2022-08-05T11:49:33.860Z,9.15
2022-08-05T11:52:01.137Z,3.85
2022-08-05T11:54:33.705Z,6.53
2022-08-05T11:57:08.575Z,9.05
2022-08-05T11:59:50.386Z,4.55
2022-08-05T12:02:31.823Z,6.53
2022-08-05T12:05:06.805Z,3.55
2022-08-05T12:08:03.468Z,6.03
2022-08-05T12:10:43.753Z,7.78
2022-08-05T12:13:16.477Z,8.18
2022-08-05T12:15:45.064Z,5.50
2022-08-05T12:18:32.821Z,5.90
2022-08-05T12:21:17.528Z,6.05
2022-08-05T12:24:00.050Z,5.53
2022-08-05T12:26:33.376Z,6.10
2022-08-05T12:29:01.408Z,5.47
2022-08-05T12:31:33.684Z,7.03
2022-08-05T12:34:20.276Z,6.03
2022-08-05T12:36:48.369Z,5.28
2022-08-05T12:39:18.199Z,9.63
2022-08-05T12:41:45.137Z,7.40
2022-08-05T12:44:28.697Z,6.38
2022-08-05T12:47:01.752Z,7.50
2022-08-05T12:50:03.201Z,8.25
2022-08-05T12:52:29.773Z,7.57
2022-08-05T12:55:02.086Z,4.28
2022-08-05T12:58:38.958Z,7.03
2022-08-05T13:02:03.463Z,7.03
2022-08-05T13:03:14.733Z,5.65
2022-08-05T13:05:42.072Z,5.85
2022-08-05T13:08:08.915Z,6.07
2022-08-05T13:10:50.331Z,7.75
2022-08-05T13:14:05.834Z,6.68
2022-08-05T13:16:13.098Z,8.93
2022-08-05T13:19:01.559Z,5.40
2022-08-05T13:21:38.107Z,5.10
2022-08-05T13:24:27.649Z,5.00
2022-08-05T13:27:03.644Z,6.05
2022-08-05T13:29:37.866Z,4.97
2022-08-05T13:32:05.606Z,7.38
2022-08-05T13:34:33.406Z,6.50
2022-08-05T13:37:00.459Z,6.95
2022-08-05T13:40:15.890Z,4.97
2022-08-05T13:42:15.277Z,5.32
2022-08-05T13:44:45.794Z,8.02
2022-08-05T13:47:35.729Z,11.18
2022-08-05T13:50:01.319Z,9.35
2022-08-05T13:52:31.537Z,5.45
2022-08-05T13:55:02.580Z,12.77
2022-08-05T13:57:49.049Z,4.80
2022-08-05T14:00:26.825Z,11.07
2022-08-05T14:02:55.734Z,4.70
2022-08-05T14:05:48.096Z,6.38
2022-08-05T14:08:19.804Z,7.20
2022-08-05T14:10:48.884Z,6.75
2022-08-05T14:13:16.232Z,7.28
2022-08-05T14:16:07.194Z,7.57
2022-08-05T14:18:29.593Z,8.18
2022-08-05T14:20:56.086Z,13.48
2022-08-05T14:23:25.772Z,8.18
2022-08-05T14:25:58.247Z,7.18
2022-08-05T14:28:27.929Z,8.55
2022-08-05T14:30:56.115Z,6.78
2022-08-05T14:33:23.858Z,9.52
2022-08-05T14:35:51.918Z,7.32
2022-08-05T14:38:33.333Z,5.90
2022-08-05T14:41:06.705Z,7.18
2022-08-05T14:43:57.500Z,5.77
2022-08-05T14:46:28.339Z,8.25
2022-08-05T14:49:06.608Z,5.65
2022-08-05T14:51:36.574Z,8.38
2022-08-05T14:54:27.007Z,9.82
2022-08-05T14:56:51.085Z,4.13
2022-08-05T14:59:21.777Z,13.82
2022-08-05T15:01:49.804Z,6.32
2022-08-05T15:04:20.713Z,6.97
2022-08-05T15:06:50.043Z,7.38
2022-08-05T15:09:51.099Z,5.22
2022-08-05T15:12:09.536Z,5.50
2022-08-05T15:14:49.366Z,8.88
2022-08-05T15:17:46.748Z,9.18
2022-08-05T15:20:06.125Z,8.32
2022-08-05T15:22:33.507Z,6.88
2022-08-05T15:25:00.230Z,5.93
2022-08-05T15:27:38.160Z,7.75
2022-08-05T15:30:11.029Z,7.80
2022-08-05T15:32:41.348Z,10.10
2022-08-05T15:35:10.616Z,8.32
2022-08-05T15:38:31.876Z,6.35
2022-08-05T15:40:59.157Z,9.07
2022-08-05T15:43:20.644Z,8.35
2022-08-05T15:45:47.820Z,8.95
2022-08-05T15:48:28.243Z,6.68
2022-08-05T15:50:55.105Z,9.60
2022-08-05T15:53:23.040Z,11.13
2022-08-05T15:56:02.761Z,8.23
2022-08-05T15:58:35.506Z,13.48
2022-08-05T16:01:17.179Z,5.93
2022-08-05T16:03:48.749Z,6.93
2022-08-05T16:06:19.575Z,5.10
2022-08-05T16:08:47.518Z,4.78
2022-08-05T16:11:14.065Z,6.85
2022-08-05T16:13:41.225Z,6.68
2022-08-05T16:16:07.925Z,5.40
2022-08-05T16:18:51.714Z,6.35
2022-08-05T16:21:20.575Z,7.13
2022-08-05T16:23:54.979Z,8.85
2022-08-05T16:26:26.370Z,7.43
2022-08-05T16:28:54.531Z,9.13
2022-08-05T16:31:21.465Z,7.75
2022-08-05T16:33:48.376Z,10.82
2022-08-05T16:36:15.090Z,8.38
2022-08-05T16:38:54.841Z,7.65
2022-08-05T16:42:14.196Z,7.28
2022-08-05T16:44:09.896Z,8.77
2022-08-05T16:46:38.834Z,8.93
2022-08-05T16:49:09.023Z,8.27
2022-08-05T16:51:50.254Z,6.97
2022-08-05T16:54:25.726Z,8.73
2022-08-05T16:56:54.107Z,7.05
2022-08-05T16:59:20.822Z,9.00
2022-08-05T17:01:54.477Z,8.57
2022-08-05T17:04:27.731Z,9.02
2022-08-05T17:06:56.915Z,8.40
2022-08-05T17:09:28.099Z,6.57
2022-08-05T17:11:59.600Z,10.13
2022-08-05T17:14:36.930Z,6.10
2022-08-05T17:17:05.160Z,8.52
2022-08-05T17:19:31.652Z,9.48
2022-08-05T17:21:58.545Z,8.18
2022-08-05T17:24:35.136Z,7.97
2022-08-05T17:27:08.944Z,10.23
2022-08-05T17:29:40.994Z,7.30
2022-08-05T17:32:11.953Z,9.48
2022-08-05T17:34:44.645Z,6.57
2022-08-05T17:37:39.716Z,8.57
2022-08-05T17:40:01.564Z,12.02
2022-08-05T17:42:32.469Z,8.82
2022-08-05T17:45:17.746Z,8.93
2022-08-05T17:47:53.028Z,7.22
2022-08-05T17:50:30.134Z,13.27
2022-08-05T17:53:04.984Z,15.48
2022-08-05T17:55:38.201Z,9.13
2022-08-05T17:58:12.899Z,14.48
2022-08-05T18:00:45.385Z,14.07
2022-08-05T18:03:28.095Z,13.65
2022-08-05T18:06:04.919Z,12.85
2022-08-05T18:08:35.129Z,18.27
2022-08-05T18:11:03.267Z,11.00
2022-08-05T18:13:36.587Z,9.43
2022-08-05T18:16:13.417Z,6.97
2022-08-05T18:18:40.870Z,10.25
2022-08-05T18:21:13.054Z,11.60
2022-08-05T18:23:47.168Z,14.18
2022-08-05T18:26:13.887Z,10.32
2022-08-05T18:28:44.666Z,12.77
2022-08-05T18:31:13.295Z,14.70
2022-08-05T18:33:47.272Z,6.72
2022-08-05T18:36:17.505Z,9.88
2022-08-05T18:38:46.197Z,7.00
2022-08-05T18:41:55.404Z,11.52
2022-08-05T18:44:06.204Z,9.93
2022-08-05T18:46:34.386Z,11.73
2022-08-05T18:49:21.048Z,17.65
2022-08-05T18:52:08.933Z,10.93
2022-08-05T18:54:41.416Z,12.97
2022-08-05T18:57:15.515Z,11.45
2022-08-05T19:00:02.467Z,9.90
2022-08-05T19:02:28.995Z,15.05
2022-08-05T19:05:02.687Z,17.20
2022-08-05T19:07:45.947Z,13.52
2022-08-05T19:10:14.031Z,13.68
2022-08-05T19:12:40.538Z,19.13
2022-08-05T19:15:45.100Z,21.65
2022-08-05T19:18:08.355Z,16.80
2022-08-05T19:20:36.507Z,12.20
2022-08-05T19:23:07.927Z,12.30
2022-08-05T19:25:43.409Z,22.50
2022-08-05T19:28:10.427Z,14.10
2022-08-05T19:30:37.018Z,16.70
2022-08-05T19:33:05.111Z,16.05
2022-08-05T19:35:55.831Z,14.88
2022-08-05T19:38:26.565Z,19.17
2022-08-05T19:40:53.627Z,15.47
2022-08-05T19:43:31.204Z,16.13
2022-08-05T19:46:16.908Z,19.23
2022-08-05T19:48:54.279Z,12.85
2022-08-05T19:52:05.759Z,15.20
2022-08-05T19:54:27.000Z,10.53
2022-08-05T19:56:57.892Z,11.13
2022-08-05T20:00:00.522Z,10.60
2022-08-05T20:02:11.559Z,13.83
2022-08-05T20:04:38.308Z,12.88
2022-08-05T20:07:13.309Z,11.85
2022-08-05T20:09:54.008Z,13.70
2022-08-05T20:12:22.708Z,13.53
2022-08-05T20:14:52.287Z,16.50
2022-08-05T20:17:19.845Z,19.27
2022-08-05T20:19:56.984Z,12.60
2022-08-05T20:22:26.654Z,16.00
2022-08-05T20:24:53.861Z,14.20
2022-08-05T20:27:21.035Z,17.90
2022-08-05T20:29:58.183Z,15.83
2022-08-05T20:32:26.361Z,11.87
2022-08-05T20:34:53.226Z,12.87
2022-08-05T20:38:06.770Z,11.60
2022-08-05T20:40:08.599Z,15.03
2022-08-05T20:42:35.546Z,13.53
2022-08-05T20:45:02.622Z,12.80
2022-08-05T20:47:31.760Z,17.50
2022-08-05T20:50:00.032Z,16.17
2022-08-05T20:52:29.569Z,13.43
2022-08-05T20:55:15.891Z,17.73
2022-08-05T20:57:44.673Z,15.43
2022-08-05T21:00:41.380Z,12.10
2022-08-05T21:03:07.031Z,14.73
2022-08-05T21:05:48.149Z,14.23
2022-08-05T21:08:26.440Z,16.93
2022-08-05T21:10:54.558Z,12.83
2022-08-05T21:13:26.159Z,12.17
2022-08-05T21:16:12.212Z,13.33
2022-08-05T21:18:38.851Z,17.13
2022-08-05T21:21:11.834Z,12.77
2022-08-05T21:23:38.996Z,15.73
2022-08-05T21:26:08.358Z,18.40
2022-08-05T21:28:41.152Z,15.50
2022-08-05T21:31:18.739Z,17.90
2022-08-05T21:33:47.745Z,16.40
2022-08-05T21:36:27.467Z,12.27
2022-08-05T21:38:56.529Z,13.20
2022-08-05T21:41:23.223Z,11.17
2022-08-05T21:43:50.932Z,12.53
2022-08-05T21:46:30.176Z,15.10
2022-08-05T21:48:57.074Z,13.37
2022-08-05T21:52:15.869Z,11.03
2022-08-05T21:54:13.020Z,14.43
2022-08-05T21:56:44.618Z,11.43
2022-08-05T21:59:23.975Z,13.80
2022-08-05T22:01:51.814Z,15.53
2022-08-05T22:04:21.505Z,15.97
2022-08-05T22:06:52.323Z,14.07
2022-08-05T22:09:21.583Z,14.10
2022-08-05T22:11:48.986Z,14.23
2022-08-05T22:14:32.999Z,17.00
2022-08-05T22:17:05.016Z,21.33
2022-08-05T22:20:03.484Z,20.53
2022-08-05T22:22:26.663Z,17.90
2022-08-05T22:25:21.190Z,15.80
2022-08-05T22:28:09.439Z,18.07
2022-08-05T22:30:55.471Z,19.80
2022-08-05T22:33:56.594Z,17.23
2022-08-05T22:36:14.298Z,17.50
2022-08-05T22:38:42.665Z,19.27
2022-08-05T22:41:10.118Z,15.27
2022-08-05T22:43:37.930Z,21.30
2022-08-05T22:46:11.845Z,23.23
2022-08-05T22:48:39.675Z,20.33
2022-08-05T22:51:07.671Z,14.47
2022-08-05T22:53:35.844Z,13.90
2022-08-05T22:56:03.597Z,17.77
2022-08-05T22:58:36.466Z,19.33
2022-08-05T23:01:03.032Z,20.70
2022-08-05T23:03:57.988Z,20.53
2022-08-05T23:06:18.919Z,27.57
2022-08-05T23:08:45.761Z,18.10
2022-08-05T23:11:18.846Z,17.80
2022-08-05T23:13:45.789Z,19.70
2022-08-05T23:16:38.671Z,15.63
2022-08-05T23:19:10.589Z,16.43
2022-08-05T23:21:50.582Z,16.47
2022-08-05T23:24:17.235Z,16.70
2022-08-05T23:26:45.830Z,17.73
2022-08-05T23:29:15.630Z,18.67
2022-08-05T23:31:42.644Z,14.70
2022-08-05T23:34:11.097Z,18.77
2022-08-05T23:36:38.415Z,15.13
2022-08-05T23:39:06.363Z,18.57
2022-08-05T23:41:34.378Z,15.97
2022-08-05T23:44:08.697Z,18.80
2022-08-05T23:46:37.481Z,17.83
2022-08-05T23:49:17.011Z,14.00
2022-08-05T23:52:07.843Z,19.10
2022-08-05T23:54:38.496Z,16.63
2022-08-05T23:57:06.586Z,13.93
